Time;durP1;ratioP1;P1;durP2;ratioP2;P2;SDS_P1;SDS_P2;PMS_P1;PMS_P2;Temp;Humidity;BMP_temperature;BMP_pressure;BME280_temperature;BME280_humidity;BME280_pressure;Samples;Min_cycle;Max_cycle;Signal;HPM_P1;HPM_P2
2021/03/01 00:00:39;;;;;;;8.20;6.72;;;3.30;99.90;;;;;;4931934;29;20424;-76
2021/03/01 00:03:05;;;;;;;6.78;5.80;;;3.30;99.90;;;;;;4905125;29;20495;-77
2021/03/01 00:05:30;;;;;;;8.30;6.43;;;3.30;99.90;;;;;;4893757;29;20413;-76
2021/03/01 00:07:56;;;;;;;6.97;6.23;;;3.30;99.90;;;;;;4933232;28;20471;-76
2021/03/01 00:10:24;;;;;;;7.32;5.93;;;3.30;99.90;;;;;;4903796;29;20423;-77
2021/03/01 00:12:49;;;;;;;7.13;6.40;;;3.30;99.90;;;;;;4911453;29;20425;-78
2021/03/01 00:15:16;;;;;;;7.10;6.38;;;3.30;99.90;;;;;;4892698;29;20416;-76
2021/03/01 00:17:41;;;;;;;8.10;6.55;;;3.30;99.90;;;;;;4928006;29;20465;-77
2021/03/01 00:20:09;;;;;;;9.40;6.93;;;3.30;99.90;;;;;;4919022;29;20899;-77
2021/03/01 00:22:34;;;;;;;8.87;6.30;;;3.30;99.90;;;;;;4914413;29;20403;-76
2021/03/01 00:25:00;;;;;;;7.83;6.47;;;3.30;99.90;;;;;;4908344;29;20458;-79
2021/03/01 00:27:26;;;;;;;6.68;5.95;;;3.30;99.90;;;;;;4896590;29;20452;-76
2021/03/01 00:29:51;;;;;;;9.77;6.60;;;3.40;99.90;;;;;;4921378;28;20414;-77
2021/03/01 00:32:17;;;;;;;7.20;6.50;;;3.30;99.90;;;;;;4910769;29;20431;-76
2021/03/01 00:34:43;;;;;;;8.87;6.80;;;3.30;99.90;;;;;;4908424;29;20403;-77
2021/03/01 00:37:09;;;;;;;7.43;6.25;;;3.30;99.90;;;;;;4891172;29;20498;-77
2021/03/01 00:39:34;;;;;;;8.07;6.57;;;3.30;99.90;;;;;;4914129;29;20404;-77
2021/03/01 00:42:00;;;;;;;5.97;5.30;;;3.30;99.90;;;;;;4921628;29;20401;-77
2021/03/01 00:44:26;;;;;;;7.00;6.30;;;3.20;99.90;;;;;;4891522;29;20415;-76
2021/03/01 00:46:52;;;;;;;6.95;6.07;;;3.30;99.90;;;;;;4930917;28;20449;-76
2021/03/01 00:49:17;;;;;;;7.32;6.60;;;3.30;99.90;;;;;;4902581;29;20723;-76
2021/03/01 00:51:43;;;;;;;6.35;5.75;;;3.20;99.90;;;;;;4906795;29;20429;-76
2021/03/01 00:54:10;;;;;;;8.30;6.45;;;3.20;99.90;;;;;;4933770;29;20924;-78
2021/03/01 00:56:48;;;;;;;7.75;6.35;;;3.20;99.90;;;;;;4897064;29;20502;-76
2021/03/01 00:59:14;;;;;;;11.40;6.57;;;3.20;99.90;;;;;;4906200;29;20422;-76
2021/03/01 01:01:40;;;;;;;6.65;5.75;;;3.20;99.90;;;;;;4892832;29;20415;-77
2021/03/01 01:04:06;;;;;;;6.68;5.97;;;3.20;99.90;;;;;;4880850;29;20411;-78
2021/03/01 01:06:33;;;;;;;9.23;6.90;;;3.20;99.90;;;;;;4898661;29;20506;-76
2021/03/01 01:08:59;;;;;;;9.07;7.05;;;3.30;99.90;;;;;;4921864;29;20501;-76
2021/03/01 01:11:25;;;;;;;7.97;6.07;;;3.20;99.90;;;;;;4911945;29;20412;-76
2021/03/01 01:13:50;;;;;;;7.00;6.13;;;3.20;99.90;;;;;;4911074;29;20415;-76
2021/03/01 01:16:16;;;;;;;6.75;5.80;;;3.20;99.90;;;;;;4883992;29;20816;-76
2021/03/01 01:18:42;;;;;;;7.33;6.37;;;3.20;99.90;;;;;;4900945;29;20446;-76
2021/03/01 01:21:08;;;;;;;7.30;6.07;;;3.30;99.90;;;;;;4889905;29;20432;-76
2021/03/01 01:23:33;;;;;;;9.13;6.05;;;3.30;99.90;;;;;;4898274;29;20424;-77
2021/03/01 01:25:59;;;;;;;9.10;6.95;;;3.30;99.90;;;;;;4912178;29;20424;-76
2021/03/01 01:28:24;;;;;;;7.10;6.40;;;3.30;99.90;;;;;;4899567;28;20951;-77
2021/03/01 01:30:50;;;;;;;7.53;6.25;;;3.30;99.90;;;;;;4934983;28;20641;-77
2021/03/01 01:33:16;;;;;;;7.55;6.55;;;3.30;99.90;;;;;;4908531;29;20441;-77
2021/03/01 01:35:42;;;;;;;7.00;6.30;;;3.30;99.90;;;;;;4932183;29;20408;-76
2021/03/01 01:38:07;;;;;;;7.05;5.93;;;3.20;99.90;;;;;;4915670;29;21200;-76
2021/03/01 01:40:34;;;;;;;7.35;6.40;;;3.30;99.90;;;;;;4888544;29;20423;-76
2021/03/01 01:42:59;;;;;;;6.88;5.97;;;3.30;99.90;;;;;;4900802;29;20415;-76
2021/03/01 01:45:25;;;;;;;7.70;6.25;;;3.30;99.90;;;;;;4885166;29;20431;-76
2021/03/01 01:47:51;;;;;;;7.20;6.50;;;3.30;99.90;;;;;;4923577;29;20413;-76
2021/03/01 01:50:21;;;;;;;7.38;6.20;;;3.30;99.90;;;;;;4915075;29;20539;-76
2021/03/01 01:52:47;;;;;;;9.63;6.10;;;3.30;99.90;;;;;;4893855;29;20408;-76
2021/03/01 01:55:13;;;;;;;6.90;6.07;;;3.30;99.90;;;;;;4922178;29;20425;-76
2021/03/01 01:57:39;;;;;;;8.90;6.70;;;3.30;99.90;;;;;;4900362;29;20914;-77
2021/03/01 02:00:08;;;;;;;7.43;6.20;;;3.30;99.90;;;;;;4918476;29;20427;-77
2021/03/01 02:02:34;;;;;;;7.38;5.80;;;3.20;99.90;;;;;;4904777;29;20396;-77
2021/03/01 02:05:01;;;;;;;7.35;5.95;;;3.30;99.90;;;;;;4897825;29;20403;-77
2021/03/01 02:08:04;;;;;;;8.32;6.50;;;3.30;99.90;;;;;;4917865;29;20443;-77
2021/03/01 02:10:43;;;;;;;8.13;6.65;;;3.20;99.90;;;;;;4873382;29;20407;-77
2021/03/01 02:13:27;;;;;;;8.70;6.65;;;3.30;99.90;;;;;;4904286;29;20419;-77
2021/03/01 02:16:24;;;;;;;6.97;6.25;;;3.30;99.90;;;;;;4904149;29;20907;-77
2021/03/01 02:18:50;;;;;;;7.55;5.97;;;3.30;99.90;;;;;;4896660;29;20503;-77
2021/03/01 02:21:15;;;;;;;7.67;5.60;;;3.30;99.90;;;;;;4897664;29;20499;-77
2021/03/01 02:23:42;;;;;;;7.60;6.00;;;3.40;99.90;;;;;;4920085;29;20417;-77
2021/03/01 02:26:15;;;;;;;7.70;5.93;;;3.40;99.90;;;;;;4923840;29;20843;-77
2021/03/01 02:28:49;;;;;;;6.20;5.57;;;3.40;99.90;;;;;;4898400;29;20422;-77
2021/03/01 02:31:15;;;;;;;8.10;5.93;;;3.70;99.90;;;;;;4909855;29;20475;-77
2021/03/01 02:33:51;;;;;;;8.80;5.97;;;3.40;99.90;;;;;;4924673;29;21027;-76
2021/03/01 02:36:19;;;;;;;6.70;5.60;;;3.40;99.90;;;;;;4881399;29;20424;-76
2021/03/01 02:38:44;;;;;;;7.57;6.00;;;3.40;99.90;;;;;;4895529;29;20432;-76
2021/03/01 02:41:11;;;;;;;6.83;5.83;;;3.40;99.90;;;;;;4884984;29;20420;-77
2021/03/01 02:43:37;;;;;;;6.53;5.90;;;3.40;99.90;;;;;;4885273;29;20414;-77
2021/03/01 02:46:03;;;;;;;6.67;5.97;;;3.30;99.90;;;;;;4880953;29;20400;-77
2021/03/01 02:48:28;;;;;;;7.83;5.87;;;3.40;99.90;;;;;;4894501;29;20423;-76
2021/03/01 02:50:54;;;;;;;6.50;5.75;;;3.40;99.90;;;;;;4896013;29;20930;-78
2021/03/01 02:53:19;;;;;;;6.50;5.45;;;3.40;99.90;;;;;;4886721;29;20786;-76
2021/03/01 02:55:46;;;;;;;7.40;5.87;;;3.40;99.90;;;;;;4908543;29;20468;-76
2021/03/01 02:58:13;;;;;;;7.55;5.60;;;3.40;99.90;;;;;;4911531;29;20459;-76
2021/03/01 03:00:39;;;;;;;8.68;6.00;;;3.40;99.90;;;;;;4909862;29;20424;-77
2021/03/01 03:03:05;;;;;;;6.22;5.53;;;3.40;99.90;;;;;;4892742;29;20424;-80
2021/03/01 03:05:31;;;;;;;6.65;6.00;;;3.40;99.90;;;;;;4901213;29;20834;-76
2021/03/01 03:07:56;;;;;;;6.90;5.67;;;3.50;99.90;;;;;;4893532;29;20404;-77
2021/03/01 03:10:22;;;;;;;6.57;5.87;;;3.50;99.90;;;;;;4894349;29;20444;-76
2021/03/01 03:12:48;;;;;;;6.93;5.57;;;3.60;99.90;;;;;;4926294;28;20466;-77
2021/03/01 03:15:15;;;;;;;6.47;5.87;;;3.40;99.90;;;;;;4894670;29;20415;-77
2021/03/01 03:17:41;;;;;;;8.63;6.20;;;3.40;99.90;;;;;;4892908;29;20421;-77
2021/03/01 03:20:07;;;;;;;5.88;5.25;;;3.40;99.90;;;;;;4884671;29;20415;-76
2021/03/01 03:22:33;;;;;;;6.43;5.68;;;3.40;99.90;;;;;;4899444;29;20411;-76
2021/03/01 03:25:00;;;;;;;8.18;6.07;;;3.40;99.90;;;;;;4923517;29;21044;-76
2021/03/01 03:27:25;;;;;;;6.93;5.72;;;3.30;99.90;;;;;;4885327;29;20433;-76
2021/03/01 03:29:51;;;;;;;8.75;5.88;;;3.30;99.90;;;;;;4918231;28;20406;-76
2021/03/01 03:32:17;;;;;;;8.40;5.47;;;3.40;99.90;;;;;;4915545;29;20411;-76
2021/03/01 03:34:43;;;;;;;6.95;5.80;;;3.30;99.90;;;;;;4930788;28;20486;-76
2021/03/01 03:37:17;;;;;;;7.13;6.10;;;3.40;99.90;;;;;;4911847;29;20418;-77
2021/03/01 03:39:45;;;;;;;8.20;5.80;;;3.30;99.90;;;;;;4887689;29;20478;-76
2021/03/01 03:42:12;;;;;;;6.63;5.95;;;3.30;99.90;;;;;;4921971;29;20406;-76
2021/03/01 03:44:37;;;;;;;7.70;6.13;;;3.30;99.90;;;;;;4897483;29;20543;-76
2021/03/01 03:47:05;;;;;;;7.57;6.30;;;3.30;99.90;;;;;;4918861;29;20883;-78
2021/03/01 03:49:31;;;;;;;7.95;5.97;;;3.30;99.90;;;;;;4918713;29;20769;-78
2021/03/01 03:51:56;;;;;;;7.10;5.90;;;3.20;99.90;;;;;;4894624;29;20407;-75
2021/03/01 03:54:22;;;;;;;6.00;5.40;;;3.30;99.90;;;;;;4907330;29;20414;-74
2021/03/01 03:56:55;;;;;;;7.00;5.63;;;3.30;99.90;;;;;;4904035;29;20407;-78
2021/03/01 03:59:21;;;;;;;6.70;6.00;;;3.30;99.90;;;;;;4887874;29;20542;-81
2021/03/01 04:01:49;;;;;;;6.60;5.60;;;3.30;99.90;;;;;;4897942;29;20460;-77
2021/03/01 04:04:15;;;;;;;8.00;5.68;;;3.30;99.90;;;;;;4913326;29;20403;-77
2021/03/01 04:06:41;;;;;;;5.93;5.32;;;3.30;99.90;;;;;;4940320;28;20449;-77
2021/03/01 04:09:08;;;;;;;8.10;5.85;;;3.30;99.90;;;;;;4943231;28;20481;-77
2021/03/01 04:11:34;;;;;;;6.47;5.40;;;3.30;99.90;;;;;;4919896;29;20471;-77
2021/03/01 04:13:59;;;;;;;6.37;5.30;;;3.30;99.90;;;;;;4919404;29;20901;-77
2021/03/01 04:16:25;;;;;;;6.47;5.63;;;3.30;99.90;;;;;;4887354;29;20463;-77
2021/03/01 04:18:53;;;;;;;6.10;5.50;;;3.30;99.90;;;;;;4927102;29;20414;-77
2021/03/01 04:21:19;;;;;;;7.13;5.65;;;3.40;99.90;;;;;;4929278;29;20963;-77
2021/03/01 04:23:45;;;;;;;7.28;5.85;;;3.30;99.90;;;;;;4912267;29;20407;-77
2021/03/01 04:26:12;;;;;;;6.87;5.77;;;3.30;99.90;;;;;;4910930;29;20464;-79
2021/03/01 04:28:37;;;;;;;6.45;5.78;;;3.20;99.90;;;;;;4927098;29;20414;-81
2021/03/01 04:31:04;;;;;;;6.60;5.40;;;3.20;99.90;;;;;;4912279;29;20523;-78
2021/03/01 04:33:30;;;;;;;5.93;5.32;;;3.20;99.90;;;;;;4895085;29;20407;-79
2021/03/01 04:35:56;;;;;;;8.00;5.93;;;3.20;99.90;;;;;;4913914;29;20430;-78
2021/03/01 04:38:21;;;;;;;6.72;5.85;;;3.20;99.90;;;;;;4920078;29;20484;-77
2021/03/01 04:40:50;;;;;;;7.27;5.57;;;3.20;99.90;;;;;;4913716;29;20415;-78
2021/03/01 04:43:15;;;;;;;5.90;5.22;;;3.20;99.90;;;;;;4879895;29;20895;-77
2021/03/01 04:45:41;;;;;;;6.80;5.67;;;3.20;99.90;;;;;;4917564;29;20397;-77
2021/03/01 04:48:07;;;;;;;8.00;5.80;;;3.20;99.90;;;;;;4949405;28;20540;-77
2021/03/01 04:50:33;;;;;;;6.33;5.37;;;3.20;99.90;;;;;;4933128;28;20464;-77
2021/03/01 04:52:59;;;;;;;7.70;6.00;;;3.20;99.90;;;;;;4922299;29;20407;-77
2021/03/01 04:55:25;;;;;;;7.72;5.68;;;3.20;99.90;;;;;;4938747;28;20442;-77
2021/03/01 04:57:51;;;;;;;6.40;5.68;;;3.20;99.90;;;;;;4916397;29;20434;-77
2021/03/01 05:00:20;;;;;;;8.30;5.88;;;3.20;99.90;;;;;;4893820;29;20400;-78
2021/03/01 05:02:45;;;;;;;6.38;5.78;;;3.20;99.90;;;;;;4927565;29;20915;-77
2021/03/01 05:05:11;;;;;;;8.10;5.40;;;3.20;99.90;;;;;;4921197;28;20402;-78
2021/03/01 05:07:37;;;;;;;7.18;5.55;;;3.20;99.90;;;;;;4923180;29;21828;-77
2021/03/01 05:10:06;;;;;;;6.68;5.95;;;3.30;99.90;;;;;;4905512;29;20395;-78
2021/03/01 05:12:32;;;;;;;6.68;5.25;;;3.30;99.90;;;;;;4902305;29;20495;-79
2021/03/01 05:14:57;;;;;;;9.18;6.32;;;3.30;99.90;;;;;;4911090;28;20480;-79
2021/03/01 05:17:23;;;;;;;7.07;6.37;;;3.30;99.90;;;;;;4916154;29;20982;-78
2021/03/01 05:19:48;;;;;;;8.30;6.05;;;3.30;99.90;;;;;;4932623;29;20421;-78
2021/03/01 05:22:14;;;;;;;9.03;6.37;;;3.30;99.90;;;;;;4925181;29;20423;-78
2021/03/01 05:24:40;;;;;;;6.20;5.60;;;3.20;99.90;;;;;;4901795;28;20403;-77
2021/03/01 05:27:06;;;;;;;6.75;5.55;;;3.20;99.90;;;;;;4903966;29;20416;-77
2021/03/01 05:29:33;;;;;;;7.18;5.70;;;3.20;99.90;;;;;;4911443;29;20495;-78
2021/03/01 05:31:58;;;;;;;7.47;6.10;;;3.20;99.90;;;;;;4920915;29;20392;-77
2021/03/01 05:34:24;;;;;;;7.23;6.40;;;3.20;99.90;;;;;;4912847;29;20804;-76
2021/03/01 05:36:50;;;;;;;8.52;6.82;;;3.30;99.90;;;;;;4897287;29;20470;-78
2021/03/01 05:39:15;;;;;;;8.27;6.30;;;3.10;99.90;;;;;;4903524;29;20406;-76
2021/03/01 05:41:41;;;;;;;6.87;5.80;;;3.10;99.90;;;;;;4903789;29;20446;-79
2021/03/01 05:44:08;;;;;;;7.00;6.30;;;3.20;99.90;;;;;;4909101;29;20403;-76
2021/03/01 05:46:34;;;;;;;7.87;6.37;;;3.20;99.90;;;;;;4918905;29;20412;-76
2021/03/01 05:49:00;;;;;;;6.82;6.13;;;3.20;99.90;;;;;;4931500;28;20405;-76
2021/03/01 05:51:26;;;;;;;7.60;6.72;;;3.30;99.90;;;;;;4941997;28;20438;-75
2021/03/01 05:53:54;;;;;;;6.97;6.27;;;3.20;99.90;;;;;;4894671;29;20910;-76
2021/03/01 05:56:21;;;;;;;7.25;6.13;;;3.20;99.90;;;;;;4928021;29;20415;-75
2021/03/01 05:58:46;;;;;;;7.55;6.72;;;3.20;99.90;;;;;;4926527;29;20457;-75
2021/03/01 06:01:12;;;;;;;7.23;6.27;;;3.30;99.90;;;;;;4940921;28;20450;-76
2021/03/01 06:03:38;;;;;;;6.55;5.75;;;3.30;99.90;;;;;;4912738;29;20482;-76
2021/03/01 06:06:04;;;;;;;6.65;6.05;;;3.30;99.90;;;;;;4898196;29;20436;-75
2021/03/01 06:08:31;;;;;;;6.93;6.22;;;3.30;99.90;;;;;;4921808;29;20415;-74
2021/03/01 06:10:57;;;;;;;6.73;6.03;;;3.40;99.90;;;;;;4896061;29;20476;-74
2021/03/01 06:13:24;;;;;;;7.45;6.15;;;3.30;99.90;;;;;;4930135;29;20411;-74
2021/03/01 06:15:49;;;;;;;7.28;6.47;;;3.40;99.90;;;;;;4912800;29;20407;-75
2021/03/01 06:18:15;;;;;;;9.33;6.90;;;3.30;99.90;;;;;;4913108;29;20486;-75
2021/03/01 06:20:41;;;;;;;7.80;6.22;;;3.30;99.90;;;;;;4929905;29;20489;-74
2021/03/01 06:23:07;;;;;;;7.13;5.93;;;3.30;99.90;;;;;;4908615;29;20413;-75
2021/03/01 06:25:33;;;;;;;7.13;6.43;;;3.30;99.90;;;;;;4922650;29;20397;-74
2021/03/01 06:28:02;;;;;;;7.60;6.20;;;3.30;99.90;;;;;;4896489;29;20411;-75
2021/03/01 06:30:38;;;;;;;7.65;6.03;;;3.40;99.90;;;;;;4921045;29;20412;-74
2021/03/01 06:33:11;;;;;;;6.88;5.57;;;3.30;99.90;;;;;;4934233;28;20403;-74
2021/03/01 06:35:43;;;;;;;6.93;5.97;;;3.30;99.90;;;;;;4906774;29;20425;-75
2021/03/01 06:38:16;;;;;;;8.65;6.20;;;3.40;99.90;;;;;;4931885;28;20414;-75
2021/03/01 06:40:41;;;;;;;6.80;5.97;;;3.40;99.90;;;;;;4935817;28;20456;-74
2021/03/01 06:43:11;;;;;;;7.72;6.00;;;3.40;99.90;;;;;;4903161;28;20410;-75
2021/03/01 06:45:36;;;;;;;8.43;6.13;;;3.40;99.90;;;;;;4909823;29;20471;-75
2021/03/01 06:48:02;;;;;;;7.30;6.47;;;3.40;99.90;;;;;;4914178;29;20412;-74
2021/03/01 06:50:32;;;;;;;6.47;5.88;;;3.40;99.90;;;;;;4916660;28;20439;-74
2021/03/01 06:53:18;;;;;;;7.53;6.45;;;3.50;99.90;;;;;;4921084;28;20401;-75
2021/03/01 06:56:08;;;;;;;6.50;5.80;;;3.50;99.90;;;;;;4892456;29;20407;-75
2021/03/01 06:58:36;;;;;;;7.22;5.82;;;3.50;99.90;;;;;;4908524;29;20438;-75
2021/03/01 07:01:04;;;;;;;6.88;5.75;;;3.60;99.90;;;;;;4924102;29;20415;-75
2021/03/01 07:03:30;;;;;;;7.03;6.33;;;3.60;99.90;;;;;;4910025;29;20403;-75
2021/03/01 07:05:56;;;;;;;6.23;5.63;;;3.60;99.90;;;;;;4909696;29;20403;-74
2021/03/01 07:08:38;;;;;;;6.72;5.80;;;3.60;99.90;;;;;;4909095;29;20412;-74
2021/03/01 07:11:20;;;;;;;6.97;6.28;;;3.70;99.90;;;;;;4895565;29;20407;-74
2021/03/01 07:13:46;;;;;;;6.93;5.78;;;3.70;99.90;;;;;;4911988;29;20402;-74
2021/03/01 07:16:12;;;;;;;6.10;5.38;;;3.70;99.90;;;;;;4909112;29;20808;-75
2021/03/01 07:18:39;;;;;;;8.20;5.80;;;3.70;99.90;;;;;;4911318;29;20407;-74
2021/03/01 07:21:05;;;;;;;7.25;5.43;;;3.80;99.90;;;;;;4912160;29;20878;-74
2021/03/01 07:23:31;;;;;;;6.87;5.17;;;3.80;99.90;;;;;;4906068;29;20944;-74
2021/03/01 07:25:56;;;;;;;5.93;5.30;;;3.90;99.90;;;;;;4910436;29;20493;-74
2021/03/01 07:28:22;;;;;;;7.38;5.85;;;3.90;99.90;;;;;;4915386;28;20410;-74
2021/03/01 07:30:48;;;;;;;6.37;5.03;;;4.00;99.90;;;;;;4915717;29;20814;-74
2021/03/01 07:33:14;;;;;;;5.63;4.97;;;4.10;99.90;;;;;;4927788;29;20520;-74
2021/03/01 07:35:43;;;;;;;7.85;5.28;;;4.00;99.90;;;;;;4899702;29;20427;-74
2021/03/01 07:38:09;;;;;;;7.03;5.33;;;4.10;99.90;;;;;;4893328;29;20419;-75
2021/03/01 07:40:35;;;;;;;5.63;5.13;;;4.10;99.90;;;;;;4905170;29;20417;-73
2021/03/01 07:43:02;;;;;;;6.13;4.80;;;4.10;99.90;;;;;;4923937;29;20415;-73
2021/03/01 07:45:28;;;;;;;7.55;5.68;;;4.20;99.90;;;;;;4918873;29;20426;-74
2021/03/01 07:47:53;;;;;;;5.22;4.72;;;4.20;99.90;;;;;;4936650;28;20394;-75
2021/03/01 07:50:35;;;;;;;5.30;4.80;;;4.20;99.90;;;;;;4939106;28;20398;-74
2021/03/01 07:53:01;;;;;;;6.35;5.30;;;4.30;99.90;;;;;;4942353;28;20484;-74
2021/03/01 07:55:27;;;;;;;6.50;5.27;;;4.30;99.90;;;;;;4916510;29;20986;-74
2021/03/01 07:58:04;;;;;;;6.15;5.32;;;4.30;99.90;;;;;;4926434;29;20423;-73
2021/03/01 08:00:33;;;;;;;5.45;4.78;;;4.50;99.90;;;;;;4939134;28;20856;-74
2021/03/01 08:02:59;;;;;;;6.00;5.13;;;4.50;99.90;;;;;;4889015;29;21105;-73
2021/03/01 08:05:29;;;;;;;6.20;4.87;;;4.50;99.90;;;;;;4898912;29;20490;-74
2021/03/01 08:07:55;;;;;;;5.43;4.90;;;4.60;99.90;;;;;;4892401;29;20728;-73
2021/03/01 08:10:32;;;;;;;5.50;5.00;;;4.70;99.90;;;;;;4896073;29;20483;-74
2021/03/01 08:13:04;;;;;;;6.40;5.45;;;4.70;99.90;;;;;;4907188;29;20912;-73
2021/03/01 08:15:34;;;;;;;6.03;5.10;;;4.70;99.90;;;;;;4896939;29;20411;-71
2021/03/01 08:18:00;;;;;;;6.00;4.93;;;4.80;99.90;;;;;;4919462;29;20970;-73
2021/03/01 08:20:28;;;;;;;5.87;4.47;;;4.80;99.90;;;;;;4920090;29;20447;-73
2021/03/01 08:23:02;;;;;;;7.57;4.68;;;4.80;99.90;;;;;;4916122;29;20412;-74
2021/03/01 08:26:02;;;;;;;4.70;4.20;;;4.80;99.90;;;;;;4913110;29;20494;-73
2021/03/01 08:28:30;;;;;;;4.78;4.20;;;4.90;99.90;;;;;;4929515;28;20511;-74
2021/03/01 08:30:56;;;;;;;5.35;4.85;;;5.00;99.90;;;;;;4933585;29;20407;-75
2021/03/01 08:33:22;;;;;;;5.47;4.65;;;5.10;99.90;;;;;;4898083;29;20411;-75
2021/03/01 08:35:52;;;;;;;5.53;4.68;;;5.20;99.90;;;;;;4930370;29;20418;-74
2021/03/01 08:38:39;;;;;;;5.20;4.70;;;5.20;99.90;;;;;;4929308;29;20446;-75
2021/03/01 08:41:04;;;;;;;5.78;4.60;;;5.20;99.90;;;;;;4930469;28;20453;-75
2021/03/01 08:43:30;;;;;;;4.97;4.47;;;5.20;99.90;;;;;;4897636;29;20401;-73
2021/03/01 08:45:56;;;;;;;5.22;4.72;;;5.30;99.90;;;;;;4928910;28;20440;-72
2021/03/01 08:48:21;;;;;;;5.13;4.60;;;5.30;99.90;;;;;;4920554;29;20400;-75
2021/03/01 08:50:49;;;;;;;5.57;4.60;;;5.40;99.90;;;;;;4930140;29;20406;-74
2021/03/01 08:53:25;;;;;;;4.82;4.20;;;5.40;99.90;;;;;;4928948;29;20412;-75
2021/03/01 08:55:50;;;;;;;4.73;4.23;;;5.50;99.90;;;;;;4912065;29;20507;-75
2021/03/01 08:58:18;;;;;;;4.73;4.23;;;5.60;99.90;;;;;;4925753;29;20568;-75
2021/03/01 09:00:57;;;;;;;6.68;4.03;;;5.60;99.90;;;;;;4936019;28;20419;-75
2021/03/01 09:03:31;;;;;;;5.80;4.20;;;5.60;99.90;;;;;;4903427;29;20417;-75
2021/03/01 09:06:02;;;;;;;5.72;4.32;;;5.60;99.90;;;;;;4894364;29;20417;-75
2021/03/01 09:08:30;;;;;;;4.82;4.32;;;5.70;99.90;;;;;;4924760;29;20399;-75
2021/03/01 09:10:56;;;;;;;4.32;3.92;;;5.70;99.90;;;;;;4914484;29;20523;-75
2021/03/01 09:13:23;;;;;;;4.40;4.00;;;5.60;99.90;;;;;;4913904;29;20756;-75
2021/03/01 09:15:49;;;;;;;4.30;3.85;;;5.70;99.90;;;;;;4919053;29;20461;-75
2021/03/01 09:18:15;;;;;;;5.28;3.72;;;5.70;99.90;;;;;;4904533;28;20402;-76
2021/03/01 09:20:46;;;;;;;4.63;4.20;;;5.80;99.90;;;;;;4917827;29;20928;-75
2021/03/01 09:23:12;;;;;;;6.45;4.03;;;5.90;99.90;;;;;;4896615;29;20418;-76
2021/03/01 09:25:38;;;;;;;5.10;4.35;;;6.00;99.90;;;;;;4896588;29;20781;-75
2021/03/01 09:28:05;;;;;;;4.07;3.67;;;6.20;99.90;;;;;;4916290;29;20408;-76
2021/03/01 09:30:30;;;;;;;7.35;4.03;;;6.20;99.90;;;;;;4914359;29;20412;-75
2021/03/01 09:33:06;;;;;;;4.88;4.15;;;6.20;99.90;;;;;;4911490;29;20408;-76
2021/03/01 09:35:33;;;;;;;4.43;3.92;;;6.20;99.90;;;;;;4914286;29;20483;-76
2021/03/01 09:38:02;;;;;;;5.07;4.28;;;6.30;99.90;;;;;;4919307;29;20508;-76
2021/03/01 09:40:28;;;;;;;4.35;3.75;;;6.30;99.90;;;;;;4936378;28;20421;-76
2021/03/01 09:42:56;;;;;;;4.18;3.78;;;6.40;99.90;;;;;;4935317;28;20798;-76
2021/03/01 09:45:22;;;;;;;4.35;3.85;;;6.50;99.90;;;;;;4924986;29;20413;-77
2021/03/01 09:47:49;;;;;;;5.13;3.85;;;6.40;99.90;;;;;;4928008;29;20411;-76
2021/03/01 09:50:15;;;;;;;4.20;3.80;;;6.50;99.90;;;;;;4913084;29;20414;-76
2021/03/01 09:52:41;;;;;;;4.57;3.78;;;6.50;99.90;;;;;;4913287;29;20423;-77
2021/03/01 09:55:08;;;;;;;3.65;3.35;;;6.60;99.90;;;;;;4911198;29;20425;-76
2021/03/01 09:57:34;;;;;;;6.80;4.10;;;6.70;99.90;;;;;;4898570;29;20415;-77
2021/03/01 10:00:00;;;;;;;4.20;3.72;;;6.70;99.90;;;;;;4917621;29;20424;-77
2021/03/01 10:02:26;;;;;;;3.97;3.57;;;6.70;99.90;;;;;;4906490;29;20511;-77
2021/03/01 10:04:52;;;;;;;5.80;3.95;;;6.70;99.90;;;;;;4933406;28;20443;-77
2021/03/01 10:07:23;;;;;;;4.37;3.97;;;6.80;99.90;;;;;;4912327;29;20403;-77
2021/03/01 10:09:49;;;;;;;4.25;3.85;;;6.90;99.90;;;;;;4911059;29;20999;-77
2021/03/01 10:12:14;;;;;;;4.15;3.75;;;6.90;99.90;;;;;;4896695;29;20400;-77
2021/03/01 10:14:40;;;;;;;3.88;3.50;;;6.80;99.90;;;;;;4896720;29;20389;-77
2021/03/01 10:17:31;;;;;;;5.47;4.20;;;6.80;99.90;;;;;;4896769;29;20915;-76
2021/03/01 10:20:07;;;;;;;4.45;3.97;;;6.90;99.90;;;;;;4877729;29;20812;-77
2021/03/01 10:22:59;;;;;;;5.00;4.20;;;7.00;99.90;;;;;;4893000;29;20404;-77
2021/03/01 10:25:29;;;;;;;5.03;4.25;;;7.00;99.90;;;;;;4911245;29;20408;-77
2021/03/01 10:27:55;;;;;;;6.00;4.57;;;7.10;99.90;;;;;;4919182;29;20436;-76
2021/03/01 10:30:21;;;;;;;5.73;5.10;;;7.20;99.90;;;;;;4906985;29;20413;-77
2021/03/01 10:32:46;;;;;;;5.80;4.95;;;7.30;99.90;;;;;;4922879;29;20480;-77
2021/03/01 10:35:18;;;;;;;5.35;4.30;;;7.40;99.90;;;;;;4918268;29;20783;-76
2021/03/01 10:38:06;;;;;;;5.10;4.20;;;7.30;99.90;;;;;;4904424;29;20411;-77
2021/03/01 10:40:32;;;;;;;6.32;5.25;;;7.20;99.90;;;;;;4895035;29;20788;-77
2021/03/01 10:43:08;;;;;;;5.68;5.07;;;7.10;99.90;;;;;;4912041;29;20412;-77
2021/03/01 10:45:41;;;;;;;4.95;4.45;;;7.20;99.90;;;;;;4895103;29;20487;-77
2021/03/01 10:48:07;;;;;;;8.60;7.70;;;7.30;99.90;;;;;;4926726;29;20463;-76
2021/03/01 10:50:33;;;;;;;6.90;6.20;;;7.30;99.90;;;;;;4894588;29;20410;-77
2021/03/01 10:52:58;;;;;;;8.30;6.72;;;7.30;99.90;;;;;;4893727;29;20470;-76
2021/03/01 10:55:24;;;;;;;8.10;7.17;;;7.30;99.90;;;;;;4889723;29;20445;-77
2021/03/01 10:57:50;;;;;;;7.78;6.93;;;7.50;99.90;;;;;;4927615;29;20407;-77
2021/03/01 11:00:16;;;;;;;9.65;6.40;;;7.50;99.90;;;;;;4925587;29;20890;-77
2021/03/01 11:02:42;;;;;;;7.45;6.75;;;7.50;99.90;;;;;;4930742;29;20408;-76
2021/03/01 11:05:08;;;;;;;8.50;7.53;;;7.60;99.90;;;;;;4894828;29;20395;-77
2021/03/01 11:07:33;;;;;;;7.27;6.57;;;7.50;99.90;;;;;;4895594;29;20976;-76
2021/03/01 11:09:59;;;;;;;5.88;5.28;;;7.60;99.90;;;;;;4907881;29;20567;-77
2021/03/01 11:12:25;;;;;;;5.40;4.80;;;7.90;99.90;;;;;;4920829;29;20408;-76
2021/03/01 11:14:50;;;;;;;5.10;4.60;;;8.20;99.90;;;;;;4909499;29;20407;-76
2021/03/01 11:17:16;;;;;;;5.47;4.80;;;8.40;99.90;;;;;;4897656;29;20939;-77
2021/03/01 11:19:42;;;;;;;4.50;4.10;;;8.50;99.90;;;;;;4927137;29;20394;-76
2021/03/01 11:22:08;;;;;;;4.70;4.30;;;8.70;99.90;;;;;;4911127;29;20415;-77
2021/03/01 11:24:33;;;;;;;7.30;5.53;;;9.00;99.90;;;;;;4910409;29;20440;-77
2021/03/01 11:26:59;;;;;;;5.50;5.00;;;9.10;99.90;;;;;;4930654;28;20390;-77
2021/03/01 11:29:25;;;;;;;5.47;4.97;;;8.90;99.90;;;;;;4920367;29;20911;-77
2021/03/01 11:31:51;;;;;;;5.18;4.68;;;8.70;99.90;;;;;;4932182;28;20824;-77
2021/03/01 11:34:17;;;;;;;5.95;5.38;;;8.80;99.90;;;;;;4921115;29;20400;-77
2021/03/01 11:36:42;;;;;;;5.50;4.73;;;9.10;99.90;;;;;;4926405;29;20415;-77
2021/03/01 11:39:09;;;;;;;4.57;3.83;;;9.20;99.90;;;;;;4911912;29;20404;-77
2021/03/01 11:41:35;;;;;;;4.83;4.33;;;9.60;99.90;;;;;;4926723;29;20426;-77
2021/03/01 11:44:01;;;;;;;4.53;4.05;;;9.60;99.90;;;;;;4910603;29;20408;-77
2021/03/01 11:46:27;;;;;;;5.50;4.20;;;9.60;99.90;;;;;;4911251;28;20589;-77
2021/03/01 11:48:53;;;;;;;5.17;4.40;;;9.90;99.90;;;;;;4929217;29;20754;-77
2021/03/01 11:51:18;;;;;;;4.53;4.13;;;10.60;99.90;;;;;;4910636;29;20897;-77
2021/03/01 11:53:44;;;;;;;6.70;4.30;;;11.20;99.90;;;;;;4909669;29;20415;-76
2021/03/01 11:56:10;;;;;;;5.35;3.92;;;11.40;99.90;;;;;;4910985;29;20462;-78
2021/03/01 11:58:36;;;;;;;4.05;3.63;;;11.00;99.90;;;;;;4898202;28;20964;-77
2021/03/01 12:01:02;;;;;;;4.93;3.78;;;11.40;99.90;;;;;;4926711;29;20424;-77
2021/03/01 12:03:28;;;;;;;3.50;3.20;;;11.50;99.90;;;;;;4933848;28;20398;-77
2021/03/01 12:05:54;;;;;;;4.68;3.75;;;11.60;99.90;;;;;;4941071;28;20425;-77
2021/03/01 12:08:19;;;;;;;5.70;3.73;;;11.50;99.90;;;;;;4920276;29;20408;-77
2021/03/01 12:10:45;;;;;;;4.70;3.67;;;11.20;99.90;;;;;;4910940;29;20411;-77
2021/03/01 12:13:11;;;;;;;5.20;4.23;;;11.10;99.90;;;;;;4910314;29;21127;-77
2021/03/01 12:15:36;;;;;;;4.47;3.97;;;11.10;99.90;;;;;;4898267;29;20410;-77
2021/03/01 12:18:02;;;;;;;4.03;3.57;;;11.80;99.90;;;;;;4915760;29;20435;-78
2021/03/01 12:20:28;;;;;;;3.90;3.60;;;12.10;99.90;;;;;;4909961;29;20959;-77
2021/03/01 12:22:54;;;;;;;3.88;3.55;;;12.10;99.90;;;;;;4911957;29;20932;-77
2021/03/01 12:25:19;;;;;;;5.50;3.80;;;12.00;99.90;;;;;;4926694;29;20448;-76
2021/03/01 12:27:45;;;;;;;4.47;3.65;;;12.10;99.90;;;;;;4898819;29;21295;-77
2021/03/01 12:30:11;;;;;;;4.05;3.65;;;12.70;99.90;;;;;;4920744;29;20417;-78
2021/03/01 12:32:37;;;;;;;5.40;3.72;;;12.80;99.90;;;;;;4912860;29;20400;-75
2021/03/01 12:35:04;;;;;;;4.30;3.70;;;12.90;99.90;;;;;;4894962;29;20757;-75
2021/03/01 12:37:30;;;;;;;4.00;3.60;;;12.40;99.90;;;;;;4901839;29;20408;-75
2021/03/01 12:39:56;;;;;;;4.68;3.78;;;12.50;99.90;;;;;;4881184;29;20396;-75
2021/03/01 12:42:21;;;;;;;4.97;4.03;;;12.40;99.90;;;;;;4913564;29;20403;-75
2021/03/01 12:44:47;;;;;;;4.10;3.70;;;12.00;99.90;;;;;;4928269;29;20415;-75
2021/03/01 12:47:13;;;;;;;5.40;3.97;;;11.70;99.90;;;;;;4906617;29;20490;-74
2021/03/01 12:49:38;;;;;;;5.03;3.50;;;12.00;99.90;;;;;;4913788;29;21011;-75
2021/03/01 12:52:04;;;;;;;5.13;4.30;;;12.40;99.90;;;;;;4897837;29;20431;-75
2021/03/01 12:54:30;;;;;;;3.67;3.37;;;12.60;99.90;;;;;;4899577;29;20409;-75
2021/03/01 12:56:58;;;;;;;4.05;3.63;;;12.50;99.90;;;;;;4912838;29;20403;-75